createdAt,value
2022-12-07T00:01:48.178Z,5.90
2022-12-07T00:04:20.146Z,5.47
2022-12-07T00:06:53.855Z,5.87
2022-12-07T00:09:22.230Z,6.70
2022-12-07T00:11:52.818Z,5.67
2022-12-07T00:14:21.960Z,6.13
2022-12-07T00:16:53.075Z,5.77
2022-12-07T00:19:22.679Z,6.60
2022-12-07T00:21:50.863Z,6.13
2022-12-07T00:24:19.178Z,6.00
2022-12-07T00:26:47.354Z,6.10
2022-12-07T00:29:19.287Z,6.37
2022-12-07T00:31:48.092Z,5.80
2022-12-07T00:34:19.498Z,5.80
2022-12-07T00:36:50.245Z,6.13
2022-12-07T00:39:18.977Z,5.83
2022-12-07T00:41:47.326Z,5.83
2022-12-07T00:44:15.493Z,5.63
2022-12-07T00:46:43.582Z,6.37
2022-12-07T00:49:11.674Z,6.60
2022-12-07T00:51:39.988Z,5.90
2022-12-07T00:54:09.655Z,6.90
2022-12-07T00:56:37.801Z,6.40
2022-12-07T00:59:06.464Z,6.67
2022-12-07T01:01:38.569Z,6.70
2022-12-07T01:04:07.555Z,6.30
2022-12-07T01:06:36.053Z,6.80
2022-12-07T01:09:05.728Z,7.07
2022-12-07T01:11:35.348Z,6.60
2022-12-07T01:14:03.765Z,6.03
2022-12-07T01:16:34.462Z,6.70
2022-12-07T01:19:05.599Z,6.57
2022-12-07T01:21:38.375Z,6.43
2022-12-07T01:24:09.645Z,6.73
2022-12-07T01:26:39.317Z,6.83
2022-12-07T01:29:07.673Z,6.67
2022-12-07T01:31:36.036Z,6.97
2022-12-07T01:34:04.345Z,7.33
2022-12-07T01:36:36.831Z,7.77
2022-12-07T01:39:07.990Z,7.03
2022-12-07T01:41:41.350Z,7.90
2022-12-07T01:44:23.566Z,7.77
2022-12-07T01:46:54.386Z,7.63
2022-12-07T01:49:33.252Z,7.53
2022-12-07T01:52:15.679Z,7.87
2022-12-07T01:54:46.225Z,7.50
2022-12-07T01:57:17.797Z,8.00
2022-12-07T01:59:49.354Z,8.03
2022-12-07T02:02:25.061Z,7.70
2022-12-07T02:04:56.140Z,8.47
2022-12-07T02:07:26.051Z,8.23
2022-12-07T02:09:54.224Z,8.37
2022-12-07T02:12:26.873Z,8.00
2022-12-07T02:14:55.235Z,8.50
2022-12-07T02:17:33.949Z,8.30
2022-12-07T02:20:29.479Z,8.13
2022-12-07T02:23:36.480Z,7.47
2022-12-07T02:26:45.418Z,6.97
2022-12-07T02:29:24.025Z,8.83
2022-12-07T02:32:08.965Z,7.60
2022-12-07T02:34:49.535Z,8.63
2022-12-07T02:37:31.155Z,8.00
2022-12-07T02:40:06.150Z,8.23
2022-12-07T02:42:41.872Z,8.50
2022-12-07T02:45:19.002Z,8.73
2022-12-07T02:47:50.657Z,9.00
2022-12-07T02:50:21.608Z,8.50
2022-12-07T02:52:50.091Z,8.70
2022-12-07T02:55:24.657Z,8.17
2022-12-07T02:58:16.752Z,9.23
2022-12-07T03:01:02.236Z,8.80
2022-12-07T03:03:31.532Z,8.67
2022-12-07T03:06:18.378Z,10.10
2022-12-07T03:08:57.047Z,9.10
2022-12-07T03:11:38.032Z,8.80
2022-12-07T03:14:17.314Z,9.50
2022-12-07T03:16:55.322Z,9.03
2022-12-07T03:19:27.985Z,10.07
2022-12-07T03:22:02.460Z,8.77
2022-12-07T03:24:38.785Z,9.53
2022-12-07T03:27:14.227Z,9.37
2022-12-07T03:29:51.314Z,9.20
2022-12-07T03:32:28.598Z,8.73
2022-12-07T03:35:05.375Z,9.03
2022-12-07T03:37:39.270Z,9.07
2022-12-07T03:40:19.623Z,10.40
2022-12-07T03:42:48.966Z,10.33
2022-12-07T03:45:18.711Z,10.40
2022-12-07T03:48:02.101Z,10.57
2022-12-07T03:50:36.468Z,11.93
2022-12-07T03:53:13.579Z,11.73
2022-12-07T03:55:45.909Z,11.73
2022-12-07T03:58:18.784Z,11.20
2022-12-07T04:00:49.039Z,11.17
2022-12-07T04:03:18.971Z,9.83
2022-12-07T04:05:47.664Z,10.00
2022-12-07T04:08:15.835Z,9.67
2022-12-07T04:10:44.056Z,9.63
2022-12-07T04:13:12.224Z,9.63
2022-12-07T04:15:40.366Z,9.30
2022-12-07T04:18:08.555Z,8.97
2022-12-07T04:20:38.175Z,9.40
2022-12-07T04:23:06.349Z,9.10
2022-12-07T04:25:34.494Z,9.03
2022-12-07T04:28:02.613Z,8.77
2022-12-07T04:30:30.751Z,8.40
2022-12-07T04:32:58.945Z,8.30
2022-12-07T04:35:27.138Z,8.10
2022-12-07T04:37:56.641Z,8.67
2022-12-07T04:40:24.837Z,9.03
2022-12-07T04:42:52.943Z,8.90
2022-12-07T04:45:21.225Z,9.10
2022-12-07T04:47:49.362Z,9.50
2022-12-07T04:50:17.567Z,9.67
2022-12-07T04:52:45.652Z,10.40
2022-12-07T04:55:15.131Z,10.87
2022-12-07T04:57:43.271Z,11.47
2022-12-07T05:00:12.906Z,10.37
2022-12-07T05:02:40.989Z,11.03
2022-12-07T05:05:09.990Z,10.10
2022-12-07T05:07:38.246Z,10.00
2022-12-07T05:10:08.483Z,10.40
2022-12-07T05:12:38.401Z,8.93
2022-12-07T05:15:07.689Z,10.67
2022-12-07T05:17:35.838Z,10.67
2022-12-07T05:20:04.674Z,10.93
2022-12-07T05:22:33.112Z,12.13
2022-12-07T05:25:01.245Z,10.70
2022-12-07T05:27:29.371Z,11.83
2022-12-07T05:29:58.939Z,12.23
2022-12-07T05:32:27.200Z,12.40
2022-12-07T05:34:55.796Z,15.87
2022-12-07T05:37:24.106Z,15.53
2022-12-07T05:39:52.235Z,17.47
2022-12-07T05:42:20.361Z,17.60
2022-12-07T05:44:48.947Z,15.60
2022-12-07T05:47:18.718Z,13.93
2022-12-07T05:49:46.860Z,14.10
2022-12-07T05:52:16.179Z,13.37
2022-12-07T05:54:44.340Z,14.87
2022-12-07T05:57:12.568Z,15.53
2022-12-07T05:59:39.714Z,17.00
2022-12-07T06:02:11.867Z,18.50
2022-12-07T06:04:43.907Z,16.50
2022-12-07T06:07:15.800Z,16.60
2022-12-07T06:09:44.123Z,17.17
2022-12-07T06:12:32.515Z,17.57
2022-12-07T06:15:00.711Z,17.97
2022-12-07T06:17:28.904Z,17.23
2022-12-07T06:19:58.462Z,16.00
2022-12-07T06:22:26.545Z,14.10
2022-12-07T06:24:54.800Z,14.43
2022-12-07T06:27:23.059Z,13.87
2022-12-07T06:29:51.190Z,13.73
2022-12-07T06:32:19.358Z,14.67
2022-12-07T06:34:48.406Z,14.33
2022-12-07T06:37:17.889Z,14.77
2022-12-07T06:39:46.546Z,15.10
2022-12-07T06:42:14.698Z,14.87
2022-12-07T06:44:42.875Z,14.63
2022-12-07T06:47:39.482Z,14.13
2022-12-07T06:50:00.810Z,14.93
2022-12-07T06:52:30.728Z,16.43
2022-12-07T06:54:59.651Z,16.90
2022-12-07T06:57:27.833Z,16.40
2022-12-07T06:59:56.055Z,15.53
2022-12-07T07:02:24.308Z,17.80
2022-12-07T07:04:52.490Z,17.03
2022-12-07T07:07:20.567Z,16.27
2022-12-07T07:09:50.032Z,15.23
2022-12-07T07:12:18.182Z,14.00
2022-12-07T07:14:46.369Z,14.20
2022-12-07T07:17:14.506Z,14.20
2022-12-07T07:19:42.617Z,15.00
2022-12-07T07:22:10.735Z,14.37
2022-12-07T07:24:39.037Z,15.07
2022-12-07T07:27:08.719Z,14.10
2022-12-07T07:29:36.920Z,14.27
2022-12-07T07:32:07.011Z,15.10
2022-12-07T07:34:35.364Z,14.47
2022-12-07T07:37:03.598Z,13.90
2022-12-07T07:39:31.772Z,13.60
2022-12-07T07:41:59.965Z,14.27
2022-12-07T07:44:35.017Z,14.40
2022-12-07T07:47:04.375Z,13.77
2022-12-07T07:49:32.626Z,15.33
2022-12-07T07:52:01.102Z,14.70
2022-12-07T07:54:29.733Z,14.87
2022-12-07T07:56:57.941Z,15.43
2022-12-07T07:59:26.786Z,16.60
2022-12-07T08:01:56.370Z,15.30
2022-12-07T08:04:24.732Z,14.50
2022-12-07T08:06:52.939Z,16.93
2022-12-07T08:09:21.449Z,15.67
2022-12-07T08:11:49.619Z,16.83
2022-12-07T08:14:17.861Z,16.70
2022-12-07T08:16:45.995Z,15.83
2022-12-07T08:19:15.499Z,16.17
2022-12-07T08:21:43.705Z,15.97
2022-12-07T08:24:11.835Z,16.13
2022-12-07T08:26:40.090Z,15.97
2022-12-07T08:29:08.316Z,16.63
2022-12-07T08:31:37.178Z,15.93
2022-12-07T08:34:05.422Z,15.03
2022-12-07T08:36:35.040Z,16.20
2022-12-07T08:41:51.320Z,14.83
2022-12-07T08:44:19.435Z,15.13
2022-12-07T08:46:52.774Z,14.77
2022-12-07T08:49:26.232Z,15.87
2022-12-07T08:51:57.028Z,15.10
2022-12-07T08:54:25.643Z,14.63
2022-12-07T08:56:59.470Z,14.13
2022-12-07T08:59:29.857Z,13.90
2022-12-07T09:01:58.267Z,13.90
2022-12-07T09:04:26.563Z,14.57
2022-12-07T09:06:57.312Z,14.77
2022-12-07T09:09:25.576Z,13.97
2022-12-07T09:11:53.791Z,13.93
2022-12-07T09:14:22.108Z,14.70
2022-12-07T09:16:50.454Z,14.23
2022-12-07T09:19:18.686Z,12.27
2022-12-07T09:21:47.014Z,13.10
2022-12-07T09:24:16.517Z,13.23
2022-12-07T09:26:45.414Z,12.10
2022-12-07T09:29:13.599Z,11.07
2022-12-07T09:31:42.398Z,11.67
2022-12-07T09:34:10.644Z,11.03
2022-12-07T09:36:38.925Z,10.93
2022-12-07T09:39:07.396Z,10.63
2022-12-07T09:41:41.503Z,11.30
2022-12-07T09:44:15.131Z,10.07
2022-12-07T09:46:45.758Z,10.10
2022-12-07T09:49:20.329Z,11.27
2022-12-07T09:51:49.234Z,10.27
2022-12-07T09:54:18.843Z,10.23
2022-12-07T09:56:48.453Z,10.00
2022-12-07T09:59:20.939Z,9.47
2022-12-07T10:01:51.797Z,8.97
2022-12-07T10:04:24.220Z,10.00
2022-12-07T10:06:53.036Z,9.73
2022-12-07T10:09:25.912Z,8.87
2022-12-07T10:12:07.527Z,8.53
2022-12-07T10:17:37.877Z,8.83
2022-12-07T10:20:21.332Z,8.83
2022-12-07T10:23:05.511Z,8.83
2022-12-07T10:25:36.969Z,9.00
2022-12-07T10:28:41.805Z,8.77
2022-12-07T10:31:20.959Z,9.63
2022-12-07T10:33:55.029Z,8.10
2022-12-07T10:36:27.667Z,8.70
2022-12-07T10:39:04.300Z,7.93
2022-12-07T10:41:32.794Z,8.67
2022-12-07T10:44:02.292Z,8.30
2022-12-07T10:47:19.277Z,8.73
2022-12-07T10:50:31.578Z,9.60
2022-12-07T10:53:39.273Z,9.00
2022-12-07T10:56:38.591Z,8.10
2022-12-07T10:59:44.522Z,7.50
2022-12-07T11:02:36.856Z,7.17
2022-12-07T11:05:18.579Z,7.37
2022-12-07T11:08:01.342Z,6.70
2022-12-07T11:10:43.512Z,7.97
2022-12-07T11:13:28.910Z,7.30
2022-12-07T11:16:25.883Z,7.57
2022-12-07T11:19:36.208Z,8.27
2022-12-07T11:22:15.137Z,8.20
2022-12-07T11:24:52.335Z,8.13
2022-12-07T11:27:39.140Z,8.60
2022-12-07T11:30:21.750Z,7.87
2022-12-07T11:33:13.995Z,7.33
2022-12-07T11:35:56.680Z,6.97
2022-12-07T11:38:30.660Z,8.27
2022-12-07T11:41:14.618Z,7.20
2022-12-07T11:44:03.778Z,7.90
2022-12-07T11:46:53.037Z,7.73
2022-12-07T11:49:34.029Z,8.20
2022-12-07T11:52:08.237Z,8.03
2022-12-07T11:54:43.021Z,9.20
2022-12-07T11:57:21.924Z,8.37
2022-12-07T11:59:58.890Z,8.57
2022-12-07T12:02:38.501Z,7.77
2022-12-07T12:05:19.027Z,7.90
2022-12-07T12:10:58.138Z,9.33
2022-12-07T12:17:51.179Z,8.23
2022-12-07T12:20:30.266Z,9.17
2022-12-07T12:23:07.877Z,17.57
2022-12-07T12:25:44.551Z,8.50
2022-12-07T12:28:26.226Z,7.67
2022-12-07T12:31:15.666Z,8.10
2022-12-07T12:33:50.229Z,8.00
2022-12-07T12:36:27.589Z,7.43
2022-12-07T12:39:19.701Z,8.50
2022-12-07T12:42:09.135Z,8.37
2022-12-07T12:45:07.107Z,7.90
2022-12-07T12:47:53.776Z,7.83
2022-12-07T12:50:26.369Z,8.23
2022-12-07T12:53:05.851Z,7.63
2022-12-07T12:56:14.678Z,8.33
2022-12-07T12:58:48.316Z,7.60
2022-12-07T13:01:49.315Z,8.13
2022-12-07T13:04:52.732Z,7.93
2022-12-07T13:08:07.063Z,7.57
2022-12-07T13:10:46.523Z,7.90
2022-12-07T13:13:37.703Z,8.10
2022-12-07T13:16:51.721Z,7.23
2022-12-07T13:20:03.108Z,7.80
2022-12-07T13:22:48.878Z,8.80
2022-12-07T13:25:33.527Z,8.70
2022-12-07T13:28:12.756Z,8.07
2022-12-07T13:30:51.749Z,9.13
2022-12-07T13:33:21.089Z,8.63
2022-12-07T13:35:49.210Z,9.07
2022-12-07T13:38:30.324Z,7.83
2022-12-07T13:41:17.025Z,9.03
2022-12-07T13:43:49.795Z,8.17
2022-12-07T13:46:21.210Z,9.57
2022-12-07T13:48:51.308Z,9.07
2022-12-07T13:51:23.997Z,9.23
2022-12-07T13:53:55.596Z,9.10
2022-12-07T13:56:33.716Z,9.00
2022-12-07T13:59:02.133Z,9.63
2022-12-07T14:01:33.244Z,10.20
2022-12-07T14:04:33.209Z,8.93
2022-12-07T14:07:20.596Z,9.50
2022-12-07T14:10:02.063Z,9.53
2022-12-07T14:12:33.904Z,10.57
2022-12-07T14:15:05.399Z,9.30
2022-12-07T14:17:33.929Z,8.23
2022-12-07T14:20:03.480Z,9.77
2022-12-07T14:22:35.821Z,10.03
2022-12-07T14:25:23.383Z,8.50
2022-12-07T14:27:58.998Z,11.70
2022-12-07T14:30:30.008Z,10.40
2022-12-07T14:33:02.472Z,10.37
2022-12-07T14:35:32.125Z,11.53
2022-12-07T14:38:00.816Z,10.37
2022-12-07T14:40:31.386Z,10.50
2022-12-07T14:43:07.652Z,9.87
2022-12-07T14:45:36.068Z,10.60
2022-12-07T14:53:51.371Z,9.13
2022-12-07T14:56:23.485Z,9.97
2022-12-07T14:58:53.117Z,10.57
2022-12-07T15:01:21.611Z,10.57
2022-12-07T15:03:49.978Z,10.50
2022-12-07T15:06:20.410Z,11.57
2022-12-07T15:08:48.747Z,11.80
2022-12-07T15:11:18.472Z,10.30
2022-12-07T15:14:04.621Z,9.77
2022-12-07T15:17:06.276Z,11.90
2022-12-07T15:19:28.308Z,12.37
2022-12-07T15:21:58.190Z,11.33
2022-12-07T15:24:26.548Z,11.50
2022-12-07T15:26:55.049Z,13.30
2022-12-07T15:29:24.075Z,13.30
2022-12-07T15:31:57.032Z,13.57
2022-12-07T15:34:27.429Z,13.33
2022-12-07T15:36:55.578Z,10.97
2022-12-07T15:39:23.940Z,11.27
2022-12-07T15:41:52.236Z,11.30
2022-12-07T15:44:38.195Z,11.17
2022-12-07T15:47:08.139Z,10.87
2022-12-07T15:49:36.506Z,10.00
2022-12-07T15:52:05.249Z,12.40
2022-12-07T15:54:34.103Z,10.30
2022-12-07T15:57:02.599Z,10.17
2022-12-07T15:59:31.590Z,12.10
2022-12-07T16:01:59.979Z,11.30
2022-12-07T16:04:31.145Z,12.73
2022-12-07T16:06:59.929Z,12.33
2022-12-07T16:09:28.943Z,12.27
2022-12-07T16:12:46.940Z,13.37
2022-12-07T16:15:16.440Z,12.43
2022-12-07T16:17:47.202Z,11.60
2022-12-07T16:20:16.879Z,12.93
2022-12-07T16:22:45.080Z,12.87
2022-12-07T16:25:13.264Z,12.50
2022-12-07T16:27:41.714Z,14.47
2022-12-07T16:30:11.190Z,20.63
2022-12-07T16:32:39.354Z,10.70
2022-12-07T16:35:08.158Z,11.07
2022-12-07T16:37:37.675Z,12.43
2022-12-07T16:40:08.025Z,10.97
2022-12-07T16:42:37.103Z,9.60
2022-12-07T16:45:06.900Z,11.70
2022-12-07T16:47:35.220Z,12.97
2022-12-07T16:50:03.422Z,11.03
2022-12-07T16:52:31.612Z,11.50
2022-12-07T16:55:01.595Z,12.50
2022-12-07T16:57:32.838Z,13.00
2022-12-07T17:00:01.063Z,14.00
2022-12-07T17:02:29.350Z,12.77
2022-12-07T17:04:57.488Z,12.03
2022-12-07T17:07:25.696Z,12.90
2022-12-07T17:09:55.274Z,14.63
2022-12-07T17:12:24.837Z,14.83
2022-12-07T17:15:10.711Z,12.97
2022-12-07T17:17:38.862Z,12.87
2022-12-07T17:20:08.783Z,15.33
2022-12-07T17:22:37.028Z,16.30
2022-12-07T17:25:06.462Z,17.57
2022-12-07T17:27:36.236Z,19.53
2022-12-07T17:30:05.179Z,14.03
2022-12-07T17:32:33.385Z,10.83
2022-12-07T17:35:02.207Z,11.43
2022-12-07T17:37:32.243Z,12.13
2022-12-07T17:40:00.694Z,13.17
2022-12-07T17:42:40.169Z,13.90
2022-12-07T17:45:12.275Z,12.87
2022-12-07T17:47:41.305Z,22.43
2022-12-07T17:50:11.230Z,13.27
2022-12-07T17:52:58.227Z,13.50
2022-12-07T17:55:26.847Z,13.43
2022-12-07T17:57:55.041Z,15.03
2022-12-07T18:00:24.881Z,17.57
2022-12-07T18:02:53.199Z,16.50
2022-12-07T18:05:21.381Z,15.47
2022-12-07T18:07:49.561Z,15.83
2022-12-07T18:10:18.258Z,16.23
2022-12-07T18:12:51.829Z,14.03
2022-12-07T18:15:20.694Z,14.10
2022-12-07T18:17:51.851Z,15.33
2022-12-07T18:20:20.001Z,15.43
2022-12-07T18:22:48.173Z,17.27
2022-12-07T18:25:16.479Z,16.90
2022-12-07T18:27:44.643Z,16.87
2022-12-07T18:30:14.204Z,13.63
2022-12-07T18:32:42.362Z,15.53
2022-12-07T18:35:11.923Z,16.73
2022-12-07T18:37:43.529Z,16.87
2022-12-07T18:40:13.432Z,15.37
2022-12-07T18:42:41.552Z,15.57
2022-12-07T18:45:10.733Z,13.80
2022-12-07T18:47:38.892Z,13.47
2022-12-07T18:50:08.909Z,13.37
2022-12-07T18:52:38.578Z,16.80
2022-12-07T18:55:08.236Z,14.30
2022-12-07T18:57:36.383Z,14.87
2022-12-07T19:00:06.676Z,16.47
2022-12-07T19:02:35.625Z,14.80
2022-12-07T19:05:04.459Z,16.73
2022-12-07T19:07:33.190Z,16.77
2022-12-07T19:10:02.847Z,15.00
2022-12-07T19:12:31.138Z,14.47
2022-12-07T19:14:59.455Z,14.03
2022-12-07T19:17:27.802Z,14.93
2022-12-07T19:19:56.062Z,14.70
2022-12-07T19:22:25.015Z,15.57
2022-12-07T19:24:56.585Z,14.47
2022-12-07T19:27:27.149Z,16.33
2022-12-07T19:29:56.188Z,17.43
2022-12-07T19:32:24.911Z,15.23
2022-12-07T19:34:54.456Z,18.73
2022-12-07T19:37:22.860Z,18.17
2022-12-07T19:39:52.140Z,16.97
2022-12-07T19:42:20.522Z,14.97
2022-12-07T19:44:50.187Z,14.83
2022-12-07T19:47:18.549Z,14.10
2022-12-07T19:49:47.251Z,14.20
2022-12-07T19:52:15.873Z,14.03
2022-12-07T19:54:44.066Z,16.13
2022-12-07T19:57:16.005Z,15.10
2022-12-07T19:59:46.379Z,14.37
2022-12-07T20:02:17.215Z,14.13
2022-12-07T20:04:45.822Z,13.57
2022-12-07T20:07:14.137Z,14.53
2022-12-07T20:09:42.624Z,13.67
2022-12-07T20:12:29.429Z,14.80
2022-12-07T20:14:57.786Z,13.67
2022-12-07T20:17:27.435Z,16.73
2022-12-07T20:19:55.760Z,18.43
2022-12-07T20:22:24.289Z,19.73
2022-12-07T20:24:52.561Z,19.10
2022-12-07T20:27:20.811Z,19.60
2022-12-07T20:29:50.649Z,17.23
2022-12-07T20:32:18.827Z,19.13
2022-12-07T20:34:49.416Z,16.67
2022-12-07T20:37:17.649Z,15.10
2022-12-07T20:39:45.840Z,14.63
2022-12-07T20:42:31.550Z,13.13
2022-12-07T20:45:03.294Z,13.07
2022-12-07T20:47:31.860Z,14.53
2022-12-07T20:50:03.524Z,14.50
2022-12-07T20:52:32.530Z,13.97
2022-12-07T20:55:00.909Z,12.63
2022-12-07T20:57:29.293Z,13.37
2022-12-07T21:00:08.885Z,13.53
2022-12-07T21:15:50.616Z,13.67
2022-12-07T21:18:18.880Z,12.17
2022-12-07T21:20:47.015Z,14.83
2022-12-07T21:23:15.195Z,15.23
2022-12-07T21:25:43.401Z,14.17
2022-12-07T21:28:11.505Z,13.87
2022-12-07T21:31:11.122Z,15.47
2022-12-07T21:33:29.783Z,15.47
2022-12-07T21:35:57.949Z,15.87
2022-12-07T21:38:26.434Z,15.70
2022-12-07T21:40:54.554Z,14.93
2022-12-07T21:43:22.818Z,14.07
2022-12-07T21:45:52.750Z,15.20
2022-12-07T21:48:22.354Z,14.07
2022-12-07T21:50:51.839Z,12.77
2022-12-07T21:53:19.947Z,14.37
2022-12-07T21:55:48.173Z,13.73
2022-12-07T21:58:16.435Z,14.50
2022-12-07T22:00:44.587Z,14.57
2022-12-07T22:03:13.822Z,13.63
2022-12-07T22:05:42.102Z,12.73
2022-12-07T22:08:11.628Z,13.20
2022-12-07T22:10:39.885Z,14.07
2022-12-07T22:13:08.046Z,13.80
2022-12-07T22:15:35.257Z,13.20
2022-12-07T22:18:03.459Z,12.13
2022-12-07T22:20:31.595Z,12.37
2022-12-07T22:22:59.928Z,12.47
2022-12-07T22:25:29.374Z,12.30
2022-12-07T22:27:57.532Z,13.40
2022-12-07T22:30:25.700Z,12.97
2022-12-07T22:32:53.892Z,12.10
2022-12-07T22:35:23.041Z,12.40
2022-12-07T22:37:51.134Z,12.20
2022-12-07T22:40:19.409Z,12.77
2022-12-07T22:42:48.891Z,13.50
2022-12-07T22:45:18.054Z,12.80
2022-12-07T22:47:46.554Z,11.93
2022-12-07T22:50:14.656Z,13.00
2022-12-07T22:52:42.875Z,13.47
2022-12-07T22:55:11.751Z,12.97
2022-12-07T22:57:39.845Z,13.83
2022-12-07T23:00:11.419Z,13.20
2022-12-07T23:02:39.643Z,14.27
2022-12-07T23:05:08.960Z,15.30
2022-12-07T23:07:37.238Z,15.20
2022-12-07T23:10:07.275Z,12.73
2022-12-07T23:12:52.166Z,12.20
2022-12-07T23:15:21.731Z,11.83
2022-12-07T23:17:49.947Z,12.13
2022-12-07T23:20:18.389Z,12.97
2022-12-07T23:22:46.572Z,11.57
2022-12-07T23:25:14.712Z,12.30
2022-12-07T23:27:42.875Z,11.40
2022-12-07T23:30:12.132Z,10.70
2022-12-07T23:32:41.625Z,11.13
2022-12-07T23:35:10.280Z,11.90
2022-12-07T23:37:38.469Z,11.17
2022-12-07T23:40:09.045Z,10.90
2022-12-07T23:42:37.262Z,10.70
2022-12-07T23:45:06.422Z,11.13
2022-12-07T23:47:34.631Z,11.90
2022-12-07T23:50:04.678Z,11.90
2022-12-07T23:52:32.911Z,11.90
2022-12-07T23:55:01.245Z,11.43
2022-12-07T23:57:30.272Z,10.73
2022-12-07T23:59:58.400Z,11.57
